YWMM weather

Wollomombi Airport
New South Wales, Australia

Public forecast

Using degrees Celsius for public forecast. Weather courtesy of forecast.io.

Closest aviation weather report (METAR) to Wollomombi Airport

Report is more than 6 hours old.

Closest report is Port Macquarie Airport, 67.4 nm (124.9 km) SE. Retrieved 2019/10/17 15:30 UTC (11 hours ago):

YPMQ 171530Z AUTO 27007KT 6000 // NCD 11/08 Q1014

Closest aviation forecast (TAF) to Wollomombi Airport

Closest forecast is Tamworth Airport, 71.8 nm (133.0 km) WSW. Retrieved 2019-10-18 00:36 UTC (2 hours ago):

TAF YSTW 172253Z 1800/1818 28008KT CAVOK FM181000 15008KT CAVOK